Time;durP1;ratioP1;P1;durP2;ratioP2;P2;SDS_P1;SDS_P2;PMS_P1;PMS_P2;Temp;Humidity;BMP_temperature;BMP_pressure;BME280_temperature;BME280_humidity;BME280_pressure;Samples;Min_cycle;Max_cycle;Signal;HPM_P1;HPM_P2
2023/05/14 00:01:39;;;;;;;20.08;9.05;;;;;;;13.52;98.98;98359.38;4464255;32;20084;-81
2023/05/14 00:04:06;;;;;;;17.37;8.75;;;;;;;13.36;100.00;98355.84;4464055;32;20097;-81
2023/05/14 00:06:33;;;;;;;20.27;10.27;;;;;;;13.66;99.28;98350.91;4464344;32;20104;-81
2023/05/14 00:08:59;;;;;;;;;;;;;;;13.15;100.00;98343.00;4465146;32;20107;-81
2023/05/14 00:11:26;;;;;;;14.77;7.60;;;;;;;13.28;100.00;98344.09;4464421;32;19964;-81
2023/05/14 00:13:53;;;;;;;19.08;9.95;;;;;;;13.34;100.00;98342.13;4463133;32;20066;-81
2023/05/14 00:16:20;;;;;;;20.70;9.95;;;;;;;13.13;100.00;98338.81;4463291;32;20057;-80
2023/05/14 00:18:47;;;;;;;18.27;9.50;;;;;;;12.98;100.00;98341.22;4464346;32;20101;-80
2023/05/14 00:21:14;;;;;;;18.08;9.68;;;;;;;13.03;100.00;98331.47;4464576;32;20107;-81
2023/05/14 00:23:41;;;;;;;19.33;10.13;;;;;;;13.12;100.00;98322.44;4463038;32;20072;-81
2023/05/14 00:26:08;;;;;;;20.88;10.18;;;;;;;13.30;100.00;98320.72;4465501;32;20093;-81
2023/05/14 00:28:35;;;;;;;18.95;9.77;;;;;;;13.18;100.00;98314.34;4465010;32;20076;-81
2023/05/14 00:31:02;;;;;;;20.12;10.85;;;;;;;13.01;100.00;98311.75;4464475;32;20084;-80
2023/05/14 00:33:29;;;;;;;15.32;8.57;;;;;;;13.35;100.00;98302.34;4463987;32;20065;-80
2023/05/14 00:35:56;;;;;;;17.33;9.52;;;;;;;13.27;100.00;98303.56;4463700;32;20101;-80
2023/05/14 00:38:26;;;;;;;19.48;10.18;;;;;;;13.63;98.10;98305.25;4464054;32;20061;-80
2023/05/14 00:40:53;;;;;;;58.47;10.70;;;;;;;13.67;99.22;98309.34;4464266;32;20107;-80
2023/05/14 00:43:21;;;;;;;22.05;10.43;;;;;;;13.81;97.77;98295.66;4464205;32;20670;-80
2023/05/14 00:45:53;;;;;;;20.75;10.88;;;;;;;13.35;99.72;98292.81;4464813;32;20065;-80
2023/05/14 00:48:22;;;;;;;19.20;10.20;;;;;;;13.09;100.00;98288.91;4464301;32;20066;-81
2023/05/14 00:50:49;;;;;;;19.90;10.43;;;;;;;13.04;100.00;98280.50;4452064;32;20084;-80
2023/05/14 00:53:18;;;;;;;20.48;10.02;;;;;;;13.12;100.00;98286.16;4465006;32;20706;-81
2023/05/14 00:55:46;;;;;;;22.20;10.88;;;;;;;12.98;100.00;98276.47;4463970;32;20061;-81
2023/05/14 00:58:13;;;;;;;20.05;10.32;;;;;;;13.14;100.00;98279.16;4449995;32;20077;-80
2023/05/14 01:00:40;;;;;;;18.52;7.93;;;;;;;13.33;100.00;98268.75;4464925;32;20080;-80
2023/05/14 01:03:08;;;;;;;16.50;8.15;;;;;;;13.04;100.00;98262.38;4462957;32;20463;-80
2023/05/14 01:05:42;;;;;;;18.98;8.38;;;;;;;13.10;100.00;98262.09;4463596;32;20054;-80
2023/05/14 01:08:17;;;;;;;15.55;7.97;;;;;;;13.03;100.00;98256.34;4464340;32;20065;-80
2023/05/14 01:10:53;;;;;;;17.17;8.85;;;;;;;12.59;100.00;98248.16;4438816;32;20053;-80
2023/05/14 01:13:27;;;;;;;20.98;9.77;;;;;;;12.47;100.00;98246.16;4451635;32;20069;-80
2023/05/14 01:15:56;;;;;;;20.35;10.80;;;;;;;12.87;100.00;98246.84;4465286;32;20057;-80
2023/05/14 01:18:40;;;;;;;17.92;8.88;;;;;;;13.09;100.00;98252.66;4466229;32;20168;-80
2023/05/14 01:21:33;;;;;;;18.92;9.95;;;;;;;12.70;100.00;98251.06;4466563;32;20085;-80
2023/05/14 01:24:00;;;;;;;16.55;7.60;;;;;;;12.38;100.00;98249.16;4466774;32;20062;-80
2023/05/14 01:26:30;;;;;;;13.30;5.95;;;;;;;12.93;100.00;98249.13;4466887;32;20073;-80
2023/05/14 01:29:11;;;;;;;18.83;9.73;;;;;;;12.33;100.00;98236.44;4453876;32;20062;-81
2023/05/14 01:31:39;;;;;;;18.92;8.43;;;;;;;12.23;100.00;98240.37;4453518;32;20080;-81
2023/05/14 01:34:08;;;;;;;20.83;9.48;;;;;;;12.87;100.00;98233.91;4453200;32;20078;-80
2023/05/14 01:36:35;;;;;;;18.60;8.65;;;;;;;12.78;100.00;98239.50;4466875;32;20076;-81
2023/05/14 01:39:03;;;;;;;17.15;9.02;;;;;;;12.71;100.00;98246.72;4452770;32;20053;-80
2023/05/14 01:41:31;;;;;;;18.87;9.55;;;;;;;12.67;100.00;98242.63;4454703;32;20057;-81
2023/05/14 01:43:58;;;;;;;19.17;10.02;;;;;;;12.68;100.00;98245.12;4466548;32;20093;-81
2023/05/14 01:46:24;;;;;;;19.15;10.00;;;;;;;12.84;100.00;98241.78;4453517;32;20088;-80
2023/05/14 01:48:51;;;;;;;14.55;7.43;;;;;;;13.25;100.00;98248.37;4467129;32;20066;-81
2023/05/14 01:51:18;;;;;;;17.12;8.07;;;;;;;12.92;100.00;98248.28;4466504;32;20053;-81
2023/05/14 01:53:45;;;;;;;19.33;9.68;;;;;;;12.81;100.00;98241.94;4467910;32;20062;-81
2023/05/14 01:56:12;;;;;;;18.70;9.63;;;;;;;12.65;100.00;98244.41;4467562;32;20223;-81
2023/05/14 01:58:39;;;;;;;20.33;10.73;;;;;;;12.83;100.00;98247.87;4453700;32;20066;-81
2023/05/14 02:01:06;;;;;;;20.25;10.48;;;;;;;12.73;100.00;98237.97;4467112;32;20061;-80
2023/05/14 02:03:33;;;;;;;19.73;10.02;;;;;;;13.08;100.00;98240.59;4467518;32;20122;-81
2023/05/14 02:05:59;;;;;;;18.73;10.30;;;;;;;12.95;100.00;98231.75;4468783;32;20099;-81
2023/05/14 02:08:28;;;;;;;18.62;9.65;;;;;;;13.03;100.00;98235.63;4468182;32;20104;-80
2023/05/14 02:10:55;;;;;;;18.52;9.48;;;;;;;13.11;100.00;98235.25;4468843;32;20050;-80
2023/05/14 02:13:22;;;;;;;16.50;9.02;;;;;;;13.10;100.00;98228.41;4468712;32;20140;-80
2023/05/14 02:15:49;;;;;;;19.73;8.57;;;;;;;13.31;100.00;98231.72;4468476;32;20049;-80
2023/05/14 02:18:16;;;;;;;20.70;9.70;;;;;;;12.52;100.00;98226.06;4467781;32;20093;-81
2023/05/14 02:20:43;;;;;;;20.02;9.05;;;;;;;13.15;100.00;98234.19;4466506;32;20066;-81
2023/05/14 02:23:10;;;;;;;16.00;6.85;;;;;;;13.55;99.83;98233.03;4466345;32;20158;-80
2023/05/14 02:25:37;;;;;;;15.45;7.82;;;;;;;13.46;100.00;98230.06;4466593;32;20061;-80
2023/05/14 02:28:04;;;;;;;20.37;8.43;;;;;;;13.40;99.73;98220.00;4452411;32;20076;-80
2023/05/14 02:30:30;;;;;;;15.88;8.10;;;;;;;13.07;100.00;98217.34;4467259;32;20062;-80
2023/05/14 02:32:57;;;;;;;17.73;8.80;;;;;;;12.83;100.00;98212.47;4466227;32;20116;-80
2023/05/14 02:35:24;;;;;;;18.17;8.85;;;;;;;13.17;100.00;98215.97;4464479;32;20057;-80
2023/05/14 02:37:51;;;;;;;17.15;9.25;;;;;;;13.35;99.94;98209.06;4451738;32;20061;-81
2023/05/14 02:40:18;;;;;;;14.80;8.20;;;;;;;13.39;99.65;98216.59;4464234;32;20683;-81
2023/05/14 02:42:45;;;;;;;14.70;7.93;;;;;;;13.40;98.91;98217.41;4464204;32;20076;-81
2023/05/14 02:45:12;;;;;;;11.93;6.22;;;;;;;13.79;96.70;98211.91;4465053;32;20154;-81
2023/05/14 02:47:39;;;;;;;14.15;7.12;;;;;;;13.36;99.09;98214.16;4463321;32;20081;-81
2023/05/14 02:50:07;;;;;;;11.50;4.47;;;;;;;13.08;100.00;98200.88;4463236;32;20077;-80
2023/05/14 02:52:34;;;;;;;15.55;7.80;;;;;;;13.27;100.00;98210.28;4464660;32;20093;-81
2023/05/14 02:55:01;;;;;;;15.65;6.55;;;;;;;12.72;100.00;98199.22;4464101;32;20104;-81
2023/05/14 02:57:28;;;;;;;13.93;6.65;;;;;;;12.75;100.00;98201.66;4450557;32;20102;-81
2023/05/14 02:59:55;;;;;;;16.42;8.07;;;;;;;12.55;100.00;98202.63;4463913;32;20081;-81
2023/05/14 03:02:22;;;;;;;14.48;7.70;;;;;;;12.44;100.00;98195.37;4463575;32;20078;-81
2023/05/14 03:04:49;;;;;;;14.98;7.05;;;;;;;12.79;100.00;98200.59;4463157;32;20069;-81
2023/05/14 03:07:16;;;;;;;10.82;4.97;;;;;;;12.56;100.00;98188.78;4462893;32;20089;-81
2023/05/14 03:09:44;;;;;;;18.92;8.93;;;;;;;12.48;100.00;98196.06;4462812;32;20112;-80
2023/05/14 03:12:13;;;;;;;15.93;8.25;;;;;;;12.44;100.00;98194.53;4462360;32;20139;-80
2023/05/14 03:14:40;;;;;;;17.60;8.73;;;;;;;12.10;100.00;98187.53;4461820;32;20549;-80
2023/05/14 03:17:06;;;;;;;15.60;7.25;;;;;;;12.42;100.00;98186.84;4461985;32;20076;-80
2023/05/14 03:19:33;;;;;;;19.30;9.32;;;;;;;12.95;100.00;98192.91;4462771;32;20105;-80
2023/05/14 03:22:00;;;;;;;16.02;9.13;;;;;;;12.37;100.00;98175.88;4462773;32;20101;-80
2023/05/14 03:24:27;;;;;;;18.48;8.80;;;;;;;12.52;100.00;98176.88;4461169;32;20080;-80
2023/05/14 03:26:55;;;;;;;16.10;7.60;;;;;;;12.42;100.00;98184.25;4463063;32;20073;-80
2023/05/14 03:29:22;;;;;;;17.23;9.15;;;;;;;12.02;100.00;98179.31;4462781;32;20107;-80
2023/05/14 03:31:49;;;;;;;15.35;7.50;;;;;;;12.29;100.00;98179.75;4463267;32;20116;-80
2023/05/14 03:34:16;;;;;;;16.27;8.77;;;;;;;12.54;100.00;98181.97;4450058;32;20443;-80
2023/05/14 03:36:43;;;;;;;17.40;9.73;;;;;;;12.55;100.00;98161.22;4463873;32;20072;-80
2023/05/14 03:39:10;;;;;;;16.77;8.60;;;;;;;12.32;100.00;98154.56;4463136;32;20134;-80
2023/05/14 03:41:38;;;;;;;16.52;8.93;;;;;;;12.28;100.00;98155.63;4463860;32;20769;-80
2023/05/14 03:44:05;;;;;;;17.05;9.68;;;;;;;11.98;100.00;98157.91;4464071;32;20114;-80
2023/05/14 03:46:32;;;;;;;15.90;7.55;;;;;;;12.40;100.00;98156.78;4463217;32;20053;-80
2023/05/14 03:48:58;;;;;;;18.65;9.18;;;;;;;12.92;100.00;98167.16;4464345;32;20162;-80
2023/05/14 03:51:25;;;;;;;18.98;10.40;;;;;;;12.26;100.00;98160.03;4464271;32;20758;-81
2023/05/14 03:53:52;;;;;;;14.18;7.80;;;;;;;12.29;100.00;98159.88;4463183;32;20110;-80
2023/05/14 03:56:19;;;;;;;14.70;7.85;;;;;;;12.26;100.00;98169.53;4463537;32;20089;-80
2023/05/14 03:58:46;;;;;;;17.02;9.23;;;;;;;12.32;100.00;98164.91;4464147;32;20085;-80
2023/05/14 04:01:13;;;;;;;15.95;7.93;;;;;;;12.20;100.00;98169.81;4466159;32;20706;-80
2023/05/14 04:03:40;;;;;;;17.52;8.90;;;;;;;12.24;100.00;98174.81;4466737;32;20652;-80
2023/05/14 04:06:07;;;;;;;23.25;11.38;;;;;;;12.61;100.00;98160.91;4467028;32;20053;-80
2023/05/14 04:08:34;;;;;;;19.42;11.12;;;;;;;12.67;100.00;98165.81;4464752;32;20118;-80
2023/05/14 04:11:01;;;;;;;19.02;10.48;;;;;;;12.82;100.00;98171.97;4451500;32;20062;-80
2023/05/14 04:13:28;;;;;;;23.98;11.90;;;;;;;12.04;100.00;98170.56;4466374;32;20107;-80
2023/05/14 04:15:57;;;;;;;18.45;10.77;;;;;;;12.13;100.00;98174.47;4465501;32;20436;-80
2023/05/14 04:18:26;;;;;;;14.23;6.30;;;;;;;12.26;100.00;98172.13;4464644;32;20097;-80
2023/05/14 04:20:53;;;;;;;19.60;9.52;;;;;;;12.70;100.00;98168.22;4465317;32;20076;-80
2023/05/14 04:23:20;;;;;;;24.60;11.85;;;;;;;12.88;100.00;98169.06;4466859;32;20097;-81
2023/05/14 04:25:47;;;;;;;20.95;10.70;;;;;;;12.56;100.00;98167.25;4466154;32;20068;-81
2023/05/14 04:28:14;;;;;;;20.92;11.20;;;;;;;12.31;100.00;98172.75;4464605;32;20076;-80
2023/05/14 04:30:41;;;;;;;21.98;12.68;;;;;;;12.51;100.00;98176.97;4466278;32;20080;-80
2023/05/14 04:33:09;;;;;;;18.00;9.45;;;;;;;12.45;100.00;98168.59;4466345;32;20099;-80
2023/05/14 04:35:36;;;;;;;22.67;11.95;;;;;;;12.12;100.00;98165.00;4466314;32;20071;-80
2023/05/14 04:38:03;;;;;;;24.58;12.10;;;;;;;12.69;100.00;98171.72;4465726;32;20057;-80
2023/05/14 04:40:30;;;;;;;15.40;7.45;;;;;;;12.28;100.00;98170.31;4465044;32;20065;-81
2023/05/14 04:42:57;;;;;;;23.50;10.88;;;;;;;12.64;100.00;98165.09;4452338;32;20093;-80
2023/05/14 04:45:25;;;;;;;24.27;12.07;;;;;;;12.19;100.00;98165.56;4464783;32;20455;-80
2023/05/14 04:47:52;;;;;;;20.65;12.27;;;;;;;12.53;100.00;98167.38;4464488;32;20069;-80
2023/05/14 04:50:19;;;;;;;21.45;11.40;;;;;;;12.95;100.00;98161.81;4464320;32;20092;-80
2023/05/14 04:52:46;;;;;;;20.35;10.02;;;;;;;12.74;100.00;98161.97;4465828;32;20053;-81
2023/05/14 04:55:13;;;;;;;19.20;10.38;;;;;;;12.34;100.00;98163.09;4464167;32;20061;-81
2023/05/14 04:57:40;;;;;;;14.75;7.05;;;;;;;12.42;100.00;98149.78;4464587;32;20107;-80
2023/05/14 05:00:08;;;;;;;21.98;11.48;;;;;;;12.19;100.00;98150.88;4464271;32;20072;-81
2023/05/14 05:02:35;;;;;;;24.08;12.02;;;;;;;12.30;100.00;98155.53;4463621;32;20093;-80
2023/05/14 05:05:02;;;;;;;20.37;11.07;;;;;;;12.92;100.00;98155.03;4463343;32;20053;-80
2023/05/14 05:07:30;;;;;;;20.62;11.88;;;;;;;12.84;100.00;98157.19;4464603;32;20460;-80
2023/05/14 05:09:56;;;;;;;22.13;10.93;;;;;;;12.57;100.00;98156.81;4463557;32;20070;-80
2023/05/14 05:12:23;;;;;;;22.15;11.30;;;;;;;12.56;100.00;98162.91;4465223;32;20092;-80
2023/05/14 05:14:50;;;;;;;12.85;6.20;;;;;;;12.35;100.00;98161.34;4464950;32;20112;-81
2023/05/14 05:17:17;;;;;;;15.82;8.45;;;;;;;13.11;100.00;98164.47;4465061;32;20065;-81
2023/05/14 05:19:44;;;;;;;19.70;10.85;;;;;;;12.59;100.00;98154.13;4464203;32;20103;-81
2023/05/14 05:22:11;;;;;;;22.60;10.80;;;;;;;12.64;100.00;98159.91;4464076;32;20431;-81
2023/05/14 05:24:38;;;;;;;21.08;11.73;;;;;;;12.63;100.00;98153.91;4462963;32;20089;-80
2023/05/14 05:27:05;;;;;;;21.98;11.07;;;;;;;12.48;100.00;98154.66;4462978;32;20080;-80
2023/05/14 05:29:32;;;;;;;21.50;11.15;;;;;;;12.57;100.00;98149.03;4463074;32;20485;-80
2023/05/14 05:31:59;;;;;;;21.45;12.52;;;;;;;12.64;100.00;98152.16;4463286;32;20133;-80
2023/05/14 05:34:26;;;;;;;19.42;11.20;;;;;;;12.56;100.00;98147.38;4450489;32;20061;-80
2023/05/14 05:36:53;;;;;;;17.80;8.88;;;;;;;11.96;100.00;98141.63;4463183;32;20100;-80
2023/05/14 05:39:20;;;;;;;19.70;11.20;;;;;;;12.70;100.00;98144.09;4462762;32;20084;-80
2023/05/14 05:41:47;;;;;;;18.85;9.93;;;;;;;12.69;100.00;98147.59;4462375;32;20096;-81
2023/05/14 05:44:14;;;;;;;21.65;12.90;;;;;;;12.93;100.00;98148.94;4462369;32;20485;-81
2023/05/14 05:46:41;;;;;;;17.55;9.20;;;;;;;12.65;100.00;98148.66;4462567;32;20077;-80
2023/05/14 05:49:07;;;;;;;15.35;8.27;;;;;;;12.84;100.00;98136.47;4463105;32;20120;-80
2023/05/14 05:51:35;;;;;;;18.42;10.02;;;;;;;12.64;100.00;98141.78;4463039;32;20111;-80
2023/05/14 05:54:02;;;;;;;18.08;9.85;;;;;;;12.66;100.00;98138.25;4463196;32;20084;-81
2023/05/14 05:56:29;;;;;;;24.15;12.70;;;;;;;12.41;100.00;98136.00;4463168;32;20150;-81
2023/05/14 05:58:56;;;;;;;24.02;11.95;;;;;;;12.75;100.00;98136.91;4462069;32;20084;-81
2023/05/14 06:01:23;;;;;;;20.50;10.40;;;;;;;12.70;100.00;98133.75;4461781;32;20065;-81
2023/05/14 06:03:50;;;;;;;19.98;11.48;;;;;;;13.02;100.00;98127.78;4461648;32;20057;-81
2023/05/14 06:06:17;;;;;;;21.40;10.30;;;;;;;12.79;100.00;98129.84;4448287;32;20668;-81
2023/05/14 06:08:44;;;;;;;16.62;8.68;;;;;;;12.58;100.00;98117.06;4462550;32;20066;-80
2023/05/14 06:11:10;;;;;;;15.38;9.07;;;;;;;12.66;100.00;98124.47;4462365;32;20101;-80
2023/05/14 06:13:37;;;;;;;;;;;;;;;12.55;100.00;98117.22;4461715;32;20090;-80
2023/05/14 06:16:04;;;;;;;18.62;10.85;;;;;;;12.59;100.00;98125.66;4460690;32;20010;-80
2023/05/14 06:18:31;;;;;;;19.58;11.32;;;;;;;12.70;100.00;98131.16;4460632;32;20097;-80
2023/05/14 06:20:58;;;;;;;20.25;11.43;;;;;;;12.48;100.00;98121.03;4459793;32;20084;-80
2023/05/14 06:23:26;;;;;;;15.10;7.95;;;;;;;12.67;100.00;98132.16;4460960;32;20115;-80
2023/05/14 06:25:53;;;;;;;16.37;7.47;;;;;;;12.75;100.00;98116.22;4460523;32;20085;-80
2023/05/14 06:28:19;;;;;;;18.83;10.13;;;;;;;12.93;100.00;98125.66;4459742;32;20077;-80
2023/05/14 06:30:49;;;;;;;18.02;7.95;;;;;;;12.62;100.00;98117.75;4460784;32;20099;-80
2023/05/14 06:33:16;;;;;;;14.13;6.90;;;;;;;12.17;100.00;98119.09;4460400;32;20101;-80
2023/05/14 06:35:46;;;;;;;18.23;9.20;;;;;;;12.14;100.00;98114.06;4460808;32;20066;-80
2023/05/14 06:38:12;;;;;;;16.87;8.20;;;;;;;12.41;100.00;98107.53;4461007;32;20444;-80
2023/05/14 06:40:39;;;;;;;14.43;5.80;;;;;;;11.98;100.00;98102.75;4461000;32;20398;-80
2023/05/14 06:43:06;;;;;;;16.40;7.95;;;;;;;12.11;100.00;98107.28;4461257;32;20084;-80
2023/05/14 06:45:33;;;;;;;17.15;9.25;;;;;;;12.19;100.00;98108.66;4461037;32;20531;-80
2023/05/14 06:48:00;;;;;;;17.17;6.95;;;;;;;11.69;100.00;98102.34;4453680;32;243607;-80
2023/05/14 06:50:27;;;;;;;16.17;8.00;;;;;;;12.10;100.00;98105.59;4461288;32;20105;-80
2023/05/14 06:52:54;;;;;;;12.43;6.57;;;;;;;12.11;100.00;98096.91;4460712;32;20057;-80
2023/05/14 06:55:21;;;;;;;14.40;5.97;;;;;;;12.30;100.00;98096.03;4461231;32;20623;-80
2023/05/14 06:57:48;;;;;;;18.52;9.15;;;;;;;12.14;100.00;98101.13;4460929;32;20053;-80
2023/05/14 07:00:15;;;;;;;15.43;7.32;;;;;;;12.48;100.00;98105.50;4460685;32;20076;-80
2023/05/14 07:02:42;;;;;;;16.55;8.13;;;;;;;12.28;100.00;98103.87;4460761;32;20080;-80
2023/05/14 07:05:09;;;;;;;18.30;9.73;;;;;;;11.95;100.00;98100.31;4460837;32;20076;-80
2023/05/14 07:07:36;;;;;;;18.05;9.07;;;;;;;12.12;100.00;98092.59;4460470;32;20112;-80
2023/05/14 07:10:04;;;;;;;13.50;6.95;;;;;;;12.11;100.00;98096.09;4460028;32;20689;-80
2023/05/14 07:12:31;;;;;;;14.60;7.18;;;;;;;11.77;100.00;98095.06;4461303;32;20538;-80
2023/05/14 07:14:58;;;;;;;16.23;8.63;;;;;;;11.98;100.00;98098.44;4460808;32;20444;-80
2023/05/14 07:17:25;;;;;;;16.10;8.50;;;;;;;11.76;100.00;98095.16;4460724;32;20112;-80
2023/05/14 07:19:54;;;;;;;14.82;7.37;;;;;;;11.73;100.00;98087.53;4461434;32;20540;-80
2023/05/14 07:22:21;;;;;;;11.63;5.35;;;;;;;12.00;100.00;98083.66;4461778;32;20081;-80
2023/05/14 07:24:48;;;;;;;14.10;6.62;;;;;;;12.12;100.00;98082.25;4448183;32;20081;-80
2023/05/14 07:27:16;;;;;;;15.80;7.28;;;;;;;11.97;100.00;98077.81;4462187;32;20119;-80
2023/05/14 07:29:43;;;;;;;13.95;6.37;;;;;;;11.75;100.00;98072.78;4462142;32;20076;-80
2023/05/14 07:32:10;;;;;;;12.93;6.40;;;;;;;12.10;100.00;98071.13;4462462;32;20785;-80
2023/05/14 07:34:41;;;;;;;12.05;5.25;;;;;;;11.74;100.00;98066.78;4463859;32;20057;-80
2023/05/14 07:37:08;;;;;;;9.32;3.62;;;;;;;12.34;100.00;98057.03;4449714;32;20077;-80
2023/05/14 07:39:35;;;;;;;11.20;5.68;;;;;;;12.09;100.00;98065.13;4464425;32;20094;-80
2023/05/14 07:42:03;;;;;;;12.90;6.37;;;;;;;11.95;100.00;98046.88;4464974;32;20065;-80
2023/05/14 07:44:30;;;;;;;11.98;6.25;;;;;;;12.22;100.00;98052.44;4464832;32;20348;-80
2023/05/14 07:46:57;;;;;;;13.77;6.28;;;;;;;11.99;100.00;98045.78;4465197;32;20122;-80
2023/05/14 07:49:24;;;;;;;12.85;6.28;;;;;;;12.22;100.00;98041.25;4464517;32;20158;-80
2023/05/14 07:51:50;;;;;;;11.02;4.78;;;;;;;12.43;100.00;98047.94;4450787;32;20805;-80
2023/05/14 07:54:17;;;;;;;14.60;7.43;;;;;;;12.11;100.00;98037.44;4464910;32;20066;-80
2023/05/14 07:56:44;;;;;;;10.75;4.93;;;;;;;12.29;100.00;98033.13;4464899;32;20097;-80
2023/05/14 07:59:11;;;;;;;12.60;6.25;;;;;;;12.70;100.00;98028.44;4450029;32;20197;-80
2023/05/14 08:01:38;;;;;;;15.93;8.50;;;;;;;12.31;100.00;98044.22;4465064;32;20057;-80
2023/05/14 08:04:05;;;;;;;15.30;8.63;;;;;;;11.95;100.00;98036.53;4464236;32;20081;-80
2023/05/14 08:06:32;;;;;;;15.27;8.02;;;;;;;12.61;100.00;98046.19;4464537;32;20111;-80
2023/05/14 08:08:59;;;;;;;13.30;7.12;;;;;;;12.13;100.00;98048.56;4464289;32;20062;-80
2023/05/14 08:11:26;;;;;;;15.65;7.68;;;;;;;11.97;100.00;98036.44;4464959;32;20112;-80
2023/05/14 08:13:53;;;;;;;17.12;10.10;;;;;;;12.13;100.00;98040.81;4464532;32;20057;-80
2023/05/14 08:16:21;;;;;;;16.15;9.18;;;;;;;12.47;100.00;98039.12;4465320;32;20058;-80
2023/05/14 08:18:48;;;;;;;20.90;10.55;;;;;;;12.48;100.00;98029.59;4450729;32;20093;-80
2023/05/14 08:21:15;;;;;;;17.02;9.18;;;;;;;12.51;100.00;98038.03;4464757;32;20081;-80
2023/05/14 08:23:41;;;;;;;16.77;9.05;;;;;;;12.51;100.00;98021.69;4465656;32;20097;-80
2023/05/14 08:26:08;;;;;;;16.48;8.88;;;;;;;12.28;100.00;98033.19;4463979;32;20097;-80
2023/05/14 08:28:35;;;;;;;16.98;9.52;;;;;;;12.44;100.00;98029.78;4464834;32;20078;-80
2023/05/14 08:31:02;;;;;;;17.05;9.27;;;;;;;12.76;100.00;98029.88;4464411;32;20095;-80
2023/05/14 08:33:29;;;;;;;15.35;8.25;;;;;;;12.99;100.00;98023.50;4464117;32;20093;-80
2023/05/14 08:35:59;;;;;;;16.77;8.48;;;;;;;13.10;100.00;98030.69;4465456;32;20062;-80
2023/05/14 08:38:26;;;;;;;14.60;7.97;;;;;;;12.62;100.00;98022.81;4466029;32;20061;-80
2023/05/14 08:40:59;;;;;;;17.08;8.80;;;;;;;12.33;100.00;98021.69;4466723;32;20106;-80
2023/05/14 08:43:30;;;;;;;14.87;6.12;;;;;;;12.34;100.00;98009.63;4467440;32;20150;-80
2023/05/14 08:46:00;;;;;;;12.25;5.70;;;;;;;12.35;100.00;98030.22;4467306;32;20088;-80
2023/05/14 08:48:36;;;;;;;17.45;9.45;;;;;;;12.57;100.00;98018.78;4467417;32;20170;-80
2023/05/14 08:51:03;;;;;;;13.80;6.32;;;;;;;12.81;100.00;98020.13;4467275;32;20048;-80
2023/05/14 08:53:30;;;;;;;16.02;6.72;;;;;;;12.88;100.00;98013.72;4468074;32;20064;-80
2023/05/14 08:55:58;;;;;;;13.35;6.25;;;;;;;12.22;100.00;98010.19;4467690;32;20093;-80
2023/05/14 08:58:26;;;;;;;16.58;8.15;;;;;;;12.37;100.00;98017.22;4467870;32;20142;-80
2023/05/14 09:00:53;;;;;;;15.43;7.97;;;;;;;12.40;100.00;98006.69;4468385;32;20103;-80
2023/05/14 09:03:21;;;;;;;12.60;5.37;;;;;;;12.90;100.00;97996.31;4468420;32;20240;-80
2023/05/14 09:05:50;;;;;;;14.15;7.62;;;;;;;12.72;100.00;98000.72;4468080;32;20062;-80
2023/05/14 09:08:17;;;;;;;13.50;6.35;;;;;;;12.65;100.00;98003.69;4453130;32;20078;-80
2023/05/14 09:10:44;;;;;;;11.25;5.65;;;;;;;12.51;100.00;98004.41;4452358;32;20092;-80
2023/05/14 09:13:11;;;;;;;13.50;6.78;;;;;;;12.49;100.00;97985.53;4464997;32;20053;-80
2023/05/14 09:15:40;;;;;;;14.45;8.05;;;;;;;12.29;100.00;97986.53;4465138;32;20112;-80
2023/05/14 09:18:07;;;;;;;12.05;6.82;;;;;;;12.18;100.00;97983.66;4464855;32;20132;-80
2023/05/14 09:20:34;;;;;;;13.73;5.78;;;;;;;11.75;100.00;97982.31;4465003;32;20057;-80
2023/05/14 09:23:01;;;;;;;15.13;7.57;;;;;;;12.08;100.00;97954.84;4451152;32;20057;-80
2023/05/14 09:25:31;;;;;;;11.35;5.82;;;;;;;12.52;100.00;97943.13;4464186;32;20495;-80
2023/05/14 09:27:58;;;;;;;12.07;5.70;;;;;;;12.64;100.00;97938.13;4465248;32;20057;-80
2023/05/14 09:30:26;;;;;;;12.45;5.60;;;;;;;12.37;100.00;97934.41;4465579;32;20085;-80
2023/05/14 09:32:53;;;;;;;10.15;5.07;;;;;;;12.34;100.00;97950.94;4466763;32;20081;-80
2023/05/14 09:35:22;;;;;;;11.82;6.00;;;;;;;12.26;100.00;97936.72;4466639;32;20073;-80
2023/05/14 09:37:51;;;;;;;10.07;4.87;;;;;;;12.23;100.00;97948.06;4466940;32;20066;-80
2023/05/14 09:40:20;;;;;;;12.85;6.47;;;;;;;12.19;100.00;97933.59;4466512;32;20127;-80
2023/05/14 09:42:48;;;;;;;9.48;4.50;;;;;;;12.14;100.00;97931.25;4466987;32;20065;-80
2023/05/14 09:45:15;;;;;;;10.20;5.30;;;;;;;11.93;100.00;97923.75;4452887;32;20066;-80
2023/05/14 09:47:43;;;;;;;13.80;6.28;;;;;;;12.22;100.00;97923.09;4466341;32;20093;-80
2023/05/14 09:50:11;;;;;;;15.50;8.25;;;;;;;11.78;100.00;97926.13;4465328;32;20057;-80
2023/05/14 09:52:38;;;;;;;16.05;7.15;;;;;;;12.24;100.00;97920.44;4466213;32;20092;-80
2023/05/14 09:55:05;;;;;;;13.70;6.70;;;;;;;12.36;100.00;97910.31;4465542;32;20066;-80
2023/05/14 09:57:33;;;;;;;12.30;6.10;;;;;;;12.17;100.00;97912.16;4466181;32;20464;-80
2023/05/14 10:00:00;;;;;;;16.95;7.07;;;;;;;12.33;100.00;97930.31;4453267;32;20061;-80
2023/05/14 10:02:39;;;;;;;13.77;7.07;;;;;;;12.33;100.00;97941.47;4467320;32;20057;-80
2023/05/14 10:05:07;;;;;;;13.38;5.87;;;;;;;12.24;100.00;97935.97;4467206;32;20729;-80
2023/05/14 10:07:39;;;;;;;13.55;6.40;;;;;;;12.31;100.00;97929.56;4465941;32;20127;-80
2023/05/14 10:10:07;;;;;;;14.48;7.75;;;;;;;12.39;100.00;97925.66;4467330;32;20130;-80
2023/05/14 10:12:37;;;;;;;14.38;6.90;;;;;;;12.71;100.00;97936.06;4467199;32;20730;-80
2023/05/14 10:15:12;;;;;;;11.25;5.85;;;;;;;12.64;100.00;97939.91;4453028;32;20084;-80
2023/05/14 10:17:40;;;;;;;11.43;5.20;;;;;;;12.63;100.00;97943.41;4466564;32;20781;-80
2023/05/14 10:20:10;;;;;;;10.38;5.37;;;;;;;12.61;100.00;97934.87;4451524;32;20066;-80
2023/05/14 10:22:38;;;;;;;11.50;5.18;;;;;;;12.66;100.00;97951.88;4465883;32;20097;-80
2023/05/14 10:25:05;;;;;;;12.23;6.00;;;;;;;12.45;100.00;97934.87;4451722;32;20080;-80
2023/05/14 10:27:32;;;;;;;14.40;7.07;;;;;;;12.66;100.00;97940.66;4466462;32;20061;-80
2023/05/14 10:29:59;;;;;;;13.75;6.85;;;;;;;12.92;100.00;97941.88;4465918;32;20103;-80
2023/05/14 10:32:27;;;;;;;16.15;7.03;;;;;;;13.01;100.00;97938.78;4465244;32;20078;-80
2023/05/14 10:34:54;;;;;;;13.55;7.03;;;;;;;12.53;100.00;97935.28;4464646;32;20157;-80
2023/05/14 10:37:22;;;;;;;10.45;4.75;;;;;;;12.37;100.00;97924.91;4464499;32;20069;-80
2023/05/14 10:39:58;;;;;;;12.05;6.10;;;;;;;12.69;100.00;97932.75;4464162;32;20066;-80
2023/05/14 10:42:27;;;;;;;10.85;5.12;;;;;;;12.37;100.00;97916.31;4451549;32;20080;-80
2023/05/14 10:45:00;;;;;;;14.15;7.78;;;;;;;12.43;100.00;97923.75;4464846;32;20120;-80
2023/05/14 10:47:30;;;;;;;10.68;4.65;;;;;;;12.52;100.00;97910.31;4450791;32;20076;-80
2023/05/14 10:49:59;;;;;;;11.73;5.72;;;;;;;12.57;100.00;97918.69;4464036;32;20110;-80
2023/05/14 10:52:26;;;;;;;11.27;5.05;;;;;;;12.62;100.00;97908.09;4464065;32;20474;-80
2023/05/14 10:54:57;;;;;;;11.63;5.45;;;;;;;13.11;100.00;97910.63;4463928;32;20105;-80
2023/05/14 10:57:30;;;;;;;13.43;5.60;;;;;;;12.65;100.00;97911.38;4451912;32;20826;-80
2023/05/14 10:59:59;;;;;;;9.73;4.15;;;;;;;12.31;100.00;97898.50;4451275;32;20061;-80
2023/05/14 11:02:27;;;;;;;11.90;4.95;;;;;;;12.41;100.00;97908.28;4464394;32;20049;-80
2023/05/14 11:05:02;;;;;;;10.15;4.28;;;;;;;12.43;100.00;97900.44;4463856;32;20122;-80
2023/05/14 11:07:31;;;;;;;12.68;6.00;;;;;;;12.15;100.00;97888.13;4464878;32;20093;-80
2023/05/14 11:10:01;;;;;;;9.18;3.95;;;;;;;12.62;100.00;97903.75;4466762;32;20061;-80
2023/05/14 11:12:28;;;;;;;11.75;5.25;;;;;;;12.83;100.00;97899.16;4467060;32;20065;-80
2023/05/14 11:15:00;;;;;;;11.15;5.62;;;;;;;12.60;100.00;97894.41;4466310;32;20101;-80
2023/05/14 11:17:28;;;;;;;11.77;5.35;;;;;;;12.63;100.00;97889.87;4466347;32;20111;-80
2023/05/14 11:19:56;;;;;;;9.48;4.43;;;;;;;12.80;100.00;97882.97;4452688;32;20114;-80